Time;durP1;ratioP1;P1;durP2;ratioP2;P2;SDS_P1;SDS_P2;PMS_P1;PMS_P2;Temp;Humidity;BMP_temperature;BMP_pressure;BME280_temperature;BME280_humidity;BME280_pressure;Samples;Min_cycle;Max_cycle;Signal;HPM_P1;HPM_P2
2023/10/02 00:01:06;;;;;;;20.57;10.17;;;;;;;;;;5014029;28;20451;-87
2023/10/02 00:03:33;;;;;;;17.17;9.90;;;;;;;;;;5027623;28;21050;-87
2023/10/02 00:06:03;;;;;;;20.13;10.87;;;;;;;;;;5026977;28;20554;-87
2023/10/02 00:08:39;;;;;;;18.07;10.90;;;;;;;;;;5019751;28;20447;-87
2023/10/02 00:14:22;;;;;;;17.17;10.70;;;;;;;;;;5006891;28;20426;-87
2023/10/02 00:16:59;;;;;;;21.63;10.13;;;;;;;;;;5018144;28;20469;-87
2023/10/02 00:19:30;;;;;;;18.20;11.33;;;;;;;;;;5014251;28;21781;-87
2023/10/02 00:22:03;;;;;;;18.47;11.67;;;;;;;;;;5015127;28;20526;-87
2023/10/02 00:24:33;;;;;;;18.13;8.83;;;;;;;;;;5013962;28;20441;-87
2023/10/02 00:27:01;;;;;;;18.33;10.47;;;;;;;;;;5014102;28;20530;-87
2023/10/02 00:29:28;;;;;;;19.20;10.23;;;;;;;;;;5029755;28;20943;-87
2023/10/02 00:31:56;;;;;;;16.73;8.93;;;;;;;;;;5019236;28;20463;-87
2023/10/02 00:34:31;;;;;;;20.43;10.20;;;;;;;;;;5014490;28;20453;-88
2023/10/02 00:37:08;;;;;;;20.50;9.90;;;;;;;;;;5030764;28;20874;-87
2023/10/02 00:39:36;;;;;;;18.83;9.63;;;;;;;;;;5020950;28;20451;-88
2023/10/02 00:44:52;;;;;;;22.07;12.20;;;;;;;;;;5014914;28;20860;-87
2023/10/02 00:47:38;;;;;;;21.83;11.60;;;;;;;;;;5028555;28;20466;-87
2023/10/02 00:50:16;;;;;;;23.33;9.50;;;;;;;;;;5017070;28;20993;-87
2023/10/02 00:52:45;;;;;;;19.20;10.50;;;;;;;;;;5020805;28;20450;-87
2023/10/02 00:55:12;;;;;;;20.40;9.80;;;;;;;;;;5015400;28;20489;-87
2023/10/02 00:57:41;;;;;;;15.50;8.17;;;;;;;;;;5018115;28;20466;-88
2023/10/02 01:00:21;;;;;;;19.30;10.00;;;;;;;;;;5023970;28;20879;-89
2023/10/02 01:02:50;;;;;;;20.67;10.47;;;;;;;;;;5016103;28;20512;-88
2023/10/02 01:05:21;;;;;;;18.20;9.93;;;;;;;;;;5018398;28;20451;-88
2023/10/02 01:07:54;;;;;;;17.20;9.07;;;;;;;;;;5017218;28;21002;-87
2023/10/02 01:10:23;;;;;;;20.47;10.20;;;;;;;;;;5016670;28;20461;-87
2023/10/02 01:12:53;;;;;;;19.90;9.63;;;;;;;;;;5016555;28;20969;-88
2023/10/02 01:15:20;;;;;;;24.00;9.50;;;;;;;;;;5021554;28;20462;-87
2023/10/02 01:17:51;;;;;;;17.50;8.80;;;;;;;;;;5030677;28;20450;-89
2023/10/02 01:23:16;;;;;;;18.57;9.20;;;;;;;;;;5011846;28;20494;-87
2023/10/02 01:25:45;;;;;;;17.60;10.00;;;;;;;;;;5010676;28;20974;-87
2023/10/02 01:28:15;;;;;;;20.20;9.53;;;;;;;;;;5017937;28;20439;-87
2023/10/02 01:30:44;;;;;;;17.93;9.70;;;;;;;;;;5010745;28;20435;-88
2023/10/02 01:33:17;;;;;;;14.90;8.00;;;;;;;;;;5016831;28;20963;-87
2023/10/02 01:35:49;;;;;;;18.40;8.90;;;;;;;;;;5014574;28;20450;-88
2023/10/02 01:38:18;;;;;;;16.63;8.10;;;;;;;;;;5025374;28;20479;-87
2023/10/02 01:40:49;;;;;;;19.43;8.40;;;;;;;;;;5023744;28;20497;-87
2023/10/02 01:43:17;;;;;;;14.13;8.27;;;;;;;;;;5017754;28;20883;-87
2023/10/02 01:45:45;;;;;;;15.53;8.57;;;;;;;;;;5029498;28;20458;-88
2023/10/02 01:48:14;;;;;;;21.90;9.13;;;;;;;;;;5030213;28;20539;-89
2023/10/02 01:50:43;;;;;;;16.43;9.07;;;;;;;;;;5029443;28;20495;-87
2023/10/02 01:53:28;;;;;;;15.60;8.53;;;;;;;;;;5022467;28;20581;-88
2023/10/02 01:56:11;;;;;;;16.50;8.10;;;;;;;;;;5011451;28;20435;-87
2023/10/02 01:58:39;;;;;;;15.37;8.50;;;;;;;;;;5013110;28;20450;-87
2023/10/02 02:01:09;;;;;;;17.57;7.90;;;;;;;;;;5019261;28;20454;-87
2023/10/02 02:03:37;;;;;;;16.80;8.47;;;;;;;;;;5023170;28;20470;-87
2023/10/02 02:06:08;;;;;;;17.03;8.00;;;;;;;;;;5028661;28;20450;-88
2023/10/02 02:08:36;;;;;;;15.30;8.17;;;;;;;;;;5009775;28;20455;-87
2023/10/02 02:11:16;;;;;;;14.40;7.27;;;;;;;;;;5007587;28;20440;-87
2023/10/02 02:13:47;;;;;;;17.10;9.30;;;;;;;;;;5007763;28;20435;-88
2023/10/02 02:16:16;;;;;;;18.73;10.07;;;;;;;;;;5014978;28;20451;-88
2023/10/02 02:18:43;;;;;;;16.13;7.57;;;;;;;;;;5023429;28;20450;-88
2023/10/02 02:21:17;;;;;;;15.90;7.60;;;;;;;;;;5016221;28;20486;-87
2023/10/02 02:23:45;;;;;;;16.83;7.30;;;;;;;;;;5006520;28;21049;-88
2023/10/02 02:26:21;;;;;;;13.63;7.60;;;;;;;;;;5016408;28;20480;-88
2023/10/02 02:28:51;;;;;;;14.80;7.93;;;;;;;;;;5021975;28;20451;-87
2023/10/02 02:31:30;;;;;;;14.70;7.67;;;;;;;;;;5015146;28;20882;-88
2023/10/02 02:33:58;;;;;;;17.23;7.63;;;;;;;;;;5021166;28;20477;-87
2023/10/02 02:36:27;;;;;;;13.57;7.60;;;;;;;;;;5020712;28;20475;-88
2023/10/02 02:39:08;;;;;;;15.23;7.60;;;;;;;;;;5015956;28;20477;-86
2023/10/02 02:41:38;;;;;;;14.17;7.10;;;;;;;;;;5017050;28;20495;-87
2023/10/02 02:44:06;;;;;;;14.60;7.93;;;;;;;;;;5015795;28;20479;-88
2023/10/02 02:46:33;;;;;;;16.40;8.90;;;;;;;;;;5022013;28;20483;-87
2023/10/02 02:49:00;;;;;;;16.20;8.50;;;;;;;;;;5011313;28;20952;-87
2023/10/02 02:51:28;;;;;;;11.90;7.20;;;;;;;;;;5016285;28;20542;-88
2023/10/02 02:53:56;;;;;;;12.00;6.63;;;;;;;;;;5010266;28;20439;-87
2023/10/02 02:56:24;;;;;;;12.97;6.70;;;;;;;;;;5038357;28;20450;-88
2023/10/02 02:58:55;;;;;;;11.07;7.03;;;;;;;;;;5037007;28;20988;-87
2023/10/02 03:01:22;;;;;;;12.70;6.80;;;;;;;;;;5023797;28;20450;-87
2023/10/02 03:03:50;;;;;;;14.60;8.37;;;;;;;;;;5022232;28;20478;-87
2023/10/02 03:06:23;;;;;;;14.10;7.50;;;;;;;;;;5031123;28;20450;-87
2023/10/02 03:08:51;;;;;;;15.50;7.87;;;;;;;;;;5038811;23;20490;-56
2023/10/02 03:11:21;;;;;;;14.13;9.23;;;;;;;;;;5011357;28;20455;-57
2023/10/02 03:13:49;;;;;;;14.60;7.40;;;;;;;;;;5011077;28;20957;-57
2023/10/02 03:16:19;;;;;;;16.60;9.43;;;;;;;;;;5017933;28;20469;-57
2023/10/02 03:18:48;;;;;;;16.67;9.60;;;;;;;;;;5025924;28;20501;-55
2023/10/02 03:21:23;;;;;;;12.90;7.00;;;;;;;;;;5019929;28;20450;-55
2023/10/02 03:23:51;;;;;;;15.73;6.73;;;;;;;;;;5015071;28;20484;-55
2023/10/02 03:26:37;;;;;;;13.70;7.13;;;;;;;;;;5015792;28;20494;-58
2023/10/02 03:29:06;;;;;;;12.50;6.20;;;;;;;;;;5025574;28;21275;-56
2023/10/02 03:31:43;;;;;;;11.93;7.00;;;;;;;;;;5030296;28;21012;-56
2023/10/02 03:34:28;;;;;;;15.63;6.73;;;;;;;;;;5029734;28;20520;-58
2023/10/02 03:36:59;;;;;;;10.13;6.70;;;;;;;;;;5030623;28;20990;-58
2023/10/02 03:42:14;;;;;;;13.10;5.90;;;;;;;;;;5021998;28;20458;-55
2023/10/02 03:44:42;;;;;;;13.27;7.10;;;;;;;;;;5028314;28;21079;-57
2023/10/02 03:47:13;;;;;;;10.83;5.63;;;;;;;;;;5024318;28;20517;-56
2023/10/02 03:49:44;;;;;;;12.13;6.10;;;;;;;;;;5012505;28;20506;-55
2023/10/02 03:52:13;;;;;;;12.00;6.40;;;;;;;;;;5011885;28;20450;-54
2023/10/02 03:54:43;;;;;;;10.77;6.07;;;;;;;;;;5023358;28;20442;-54
2023/10/02 03:57:37;;;;;;;10.70;6.53;;;;;;;;;;5030227;28;20446;-54
2023/10/02 04:00:04;;;;;;;14.40;7.20;;;;;;;;;;5029730;28;21076;-54
2023/10/02 04:02:36;;;;;;;12.80;6.40;;;;;;;;;;5030371;28;20449;-55
2023/10/02 04:05:04;;;;;;;14.23;6.00;;;;;;;;;;5030347;28;20557;-56
2023/10/02 04:07:31;;;;;;;11.97;6.43;;;;;;;;;;5029977;28;20544;-57
2023/10/02 04:10:00;;;;;;;10.60;6.53;;;;;;;;;;5015443;28;20474;-57
2023/10/02 04:12:27;;;;;;;13.27;6.30;;;;;;;;;;5010514;28;20545;-55
2023/10/02 04:14:54;;;;;;;12.03;5.30;;;;;;;;;;5010410;28;20927;-55
2023/10/02 04:17:21;;;;;;;10.27;5.80;;;;;;;;;;5010589;28;20473;-57
2023/10/02 04:19:51;;;;;;;12.73;6.03;;;;;;;;;;5013993;28;20954;-55
2023/10/02 04:22:22;;;;;;;16.53;6.67;;;;;;;;;;5013799;28;20457;-57
2023/10/02 04:24:54;;;;;;;12.77;6.07;;;;;;;;;;5014456;28;20521;-56
2023/10/02 04:27:22;;;;;;;12.83;6.10;;;;;;;;;;5013992;28;20971;-55
2023/10/02 04:30:19;;;;;;;12.63;7.00;;;;;;;;;;5014206;28;20520;-55
2023/10/02 04:32:49;;;;;;;12.60;5.80;;;;;;;;;;5027734;28;20473;-56
2023/10/02 04:38:07;;;;;;;10.47;6.50;;;;;;;;;;5023358;28;20445;-57
2023/10/02 04:40:37;;;;;;;13.53;7.77;;;;;;;;;;5033327;28;20477;-55
2023/10/02 04:43:23;;;;;;;13.93;7.27;;;;;;;;;;5033579;28;20808;-55
2023/10/02 04:45:52;;;;;;;10.87;6.10;;;;;;;;;;5051939;23;20483;-82
2023/10/02 04:48:25;;;;;;;15.70;6.87;;;;;;;;;;5016282;28;21378;-82
2023/10/02 04:50:56;;;;;;;14.40;7.17;;;;;;;;;;5016997;28;20832;-82
2023/10/02 04:53:23;;;;;;;13.70;8.30;;;;;;;;;;5016278;28;20504;-82
2023/10/02 04:56:07;;;;;;;12.87;5.87;;;;;;;;;;5026453;28;20935;-82
2023/10/02 04:58:36;;;;;;;13.33;6.83;;;;;;;;;;5013494;28;20517;-83
2023/10/02 05:01:25;;;;;;;12.57;6.90;;;;;;;;;;5028417;23;20830;-55
2023/10/02 05:03:53;;;;;;;9.83;5.23;;;;;;;;;;5011513;28;20977;-55
2023/10/02 05:06:44;;;;;;;12.50;6.27;;;;;;;;;;5011739;28;20471;-55
2023/10/02 05:09:25;;;;;;;14.20;6.43;;;;;;;;;;5012784;28;20473;-54
2023/10/02 05:12:03;;;;;;;12.97;6.53;;;;;;;;;;5013062;28;20446;-54
2023/10/02 05:14:33;;;;;;;10.20;5.40;;;;;;;;;;5012479;28;20431;-54
2023/10/02 05:17:38;;;;;;;9.70;5.80;;;;;;;;;;5011478;28;20554;-54
2023/10/02 05:20:07;;;;;;;12.37;6.43;;;;;;;;;;5011438;28;20539;-54
2023/10/02 05:22:37;;;;;;;9.77;6.33;;;;;;;;;;5011656;28;20451;-54
2023/10/02 05:25:04;;;;;;;13.47;6.23;;;;;;;;;;5011607;28;20570;-55
2023/10/02 05:27:32;;;;;;;13.10;6.40;;;;;;;;;;5011858;28;20451;-54
2023/10/02 05:29:59;;;;;;;9.53;5.40;;;;;;;;;;5011399;28;20993;-53
2023/10/02 05:32:31;;;;;;;11.57;5.80;;;;;;;;;;5012651;28;20505;-53
2023/10/02 05:35:06;;;;;;;11.47;6.20;;;;;;;;;;5012176;28;20958;-53
2023/10/02 05:37:39;;;;;;;9.60;5.10;;;;;;;;;;5012172;28;20876;-53
2023/10/02 05:43:10;;;;;;;8.53;4.67;;;;;;;;;;5012499;28;20443;-55
2023/10/02 05:45:47;;;;;;;9.97;4.70;;;;;;;;;;5012283;28;20540;-56
2023/10/02 05:48:15;;;;;;;11.13;5.73;;;;;;;;;;5012367;28;20821;-56
2023/10/02 05:50:47;;;;;;;10.90;4.70;;;;;;;;;;5012008;28;20847;-55
2023/10/02 05:53:15;;;;;;;9.90;5.00;;;;;;;;;;5012126;28;20530;-56
2023/10/02 05:58:31;;;;;;;10.53;5.53;;;;;;;;;;5007981;28;20931;-56
2023/10/02 06:01:01;;;;;;;10.73;4.50;;;;;;;;;;5014515;28;20450;-56
2023/10/02 06:03:29;;;;;;;10.27;5.23;;;;;;;;;;5012206;28;20814;-56
2023/10/02 06:08:44;;;;;;;8.67;5.20;;;;;;;;;;5006127;28;20462;-55
2023/10/02 06:11:31;;;;;;;12.30;5.37;;;;;;;;;;5011718;28;20505;-56
2023/10/02 06:14:09;;;;;;;9.90;4.17;;;;;;;;;;5012066;28;20447;-55
2023/10/02 06:16:37;;;;;;;8.93;4.10;;;;;;;;;;5011931;28;20466;-54
2023/10/02 06:19:06;;;;;;;9.50;4.67;;;;;;;;;;5011802;28;20461;-55
2023/10/02 06:21:45;;;;;;;10.90;5.13;;;;;;;;;;5011904;28;20447;-54
2023/10/02 06:24:13;;;;;;;9.60;4.57;;;;;;;;;;5011654;28;20486;-57
2023/10/02 06:26:55;;;;;;;14.20;5.00;;;;;;;;;;5011731;28;20471;-56
2023/10/02 06:29:23;;;;;;;9.07;4.63;;;;;;;;;;5011786;28;20451;-57
2023/10/02 06:31:59;;;;;;;7.40;3.87;;;;;;;;;;5009831;28;20526;-54
2023/10/02 06:34:36;;;;;;;8.80;4.30;;;;;;;;;;5011267;28;20501;-56
2023/10/02 06:37:07;;;;;;;10.33;5.20;;;;;;;;;;5011281;28;20848;-57
2023/10/02 06:39:36;;;;;;;10.27;4.90;;;;;;;;;;5010300;28;20447;-56
2023/10/02 06:42:05;;;;;;;7.83;4.10;;;;;;;;;;5010933;28;20535;-56
2023/10/02 06:47:17;;;;;;;8.00;4.10;;;;;;;;;;5003794;28;20447;-56
2023/10/02 06:49:45;;;;;;;10.13;5.40;;;;;;;;;;5011082;28;20439;-55
2023/10/02 06:52:15;;;;;;;7.40;4.07;;;;;;;;;;5010810;28;20438;-56
2023/10/02 06:54:43;;;;;;;7.90;4.43;;;;;;;;;;5011244;28;20939;-56
2023/10/02 06:57:17;;;;;;;7.70;4.30;;;;;;;;;;5008329;28;20464;-55
2023/10/02 06:59:52;;;;;;;7.93;3.60;;;;;;;;;;5010712;28;20439;-55
2023/10/02 07:02:20;;;;;;;10.13;5.13;;;;;;;;;;5008764;28;20525;-55
2023/10/02 07:04:48;;;;;;;7.40;4.07;;;;;;;;;;5010711;28;20557;-56
2023/10/02 07:07:20;;;;;;;5.10;3.50;;;;;;;;;;5010793;28;20485;-56
2023/10/02 07:09:48;;;;;;;7.97;3.67;;;;;;;;;;5010846;28;20947;-55
2023/10/02 07:12:16;;;;;;;6.60;3.57;;;;;;;;;;5010503;28;20493;-55
2023/10/02 07:14:45;;;;;;;6.27;3.87;;;;;;;;;;5010677;28;20466;-56
2023/10/02 07:17:16;;;;;;;9.13;4.20;;;;;;;;;;5007618;28;20889;-55
2023/10/02 07:19:49;;;;;;;7.23;4.33;;;;;;;;;;5010735;28;20522;-56
2023/10/02 07:22:24;;;;;;;8.10;4.00;;;;;;;;;;5007901;28;21022;-55
2023/10/02 07:24:54;;;;;;;8.23;4.30;;;;;;;;;;5010291;28;20474;-56
2023/10/02 07:27:26;;;;;;;8.33;5.30;;;;;;;;;;5010542;28;20986;-57
2023/10/02 07:29:56;;;;;;;9.80;5.80;;;;;;;;;;5008145;28;20868;-55
2023/10/02 07:32:24;;;;;;;9.20;4.43;;;;;;;;;;5010034;28;20443;-55
2023/10/02 07:34:54;;;;;;;8.33;3.83;;;;;;;;;;5010417;28;20520;-56
2023/10/02 07:37:22;;;;;;;9.57;4.10;;;;;;;;;;5007825;28;20544;-56
2023/10/02 07:40:00;;;;;;;7.67;4.37;;;;;;;;;;5010025;28;21194;-55
2023/10/02 07:42:29;;;;;;;10.50;4.10;;;;;;;;;;5006198;28;20451;-56
2023/10/02 07:45:12;;;;;;;9.33;4.83;;;;;;;;;;5006752;28;20470;-56
2023/10/02 07:50:33;;;;;;;9.57;5.27;;;;;;;;;;4999712;28;20425;-56
2023/10/02 07:53:04;;;;;;;8.83;5.40;;;;;;;;;;4999798;28;20820;-56
2023/10/02 07:55:32;;;;;;;7.17;3.87;;;;;;;;;;4999661;28;20570;-55
2023/10/02 07:58:01;;;;;;;8.40;4.47;;;;;;;;;;4999957;28;20451;-55
2023/10/02 08:00:38;;;;;;;12.43;4.97;;;;;;;;;;4998945;28;20488;-56
2023/10/02 08:05:57;;;;;;;7.33;4.00;;;;;;;;;;4999346;28;20541;-55
2023/10/02 08:08:31;;;;;;;9.10;4.10;;;;;;;;;;5000676;28;20542;-56
2023/10/02 08:10:59;;;;;;;9.47;4.50;;;;;;;;;;5000181;28;20447;-55
2023/10/02 08:13:33;;;;;;;6.57;4.67;;;;;;;;;;4999770;28;20545;-56
2023/10/02 08:16:06;;;;;;;8.83;4.20;;;;;;;;;;5000085;28;20459;-56
2023/10/02 08:18:33;;;;;;;7.57;4.10;;;;;;;;;;4998900;28;20443;-56
2023/10/02 08:21:01;;;;;;;8.70;4.43;;;;;;;;;;5000060;28;20986;-55
2023/10/02 08:23:29;;;;;;;8.77;4.20;;;;;;;;;;4999338;28;20459;-55
2023/10/02 08:26:04;;;;;;;7.97;4.00;;;;;;;;;;4998324;28;20561;-56
2023/10/02 08:28:34;;;;;;;11.47;3.97;;;;;;;;;;4997664;28;20844;-56
2023/10/02 08:31:02;;;;;;;9.57;4.47;;;;;;;;;;4998532;28;20462;-57
2023/10/02 08:33:31;;;;;;;7.07;3.63;;;;;;;;;;4998468;28;20958;-57
2023/10/02 08:36:09;;;;;;;5.17;3.03;;;;;;;;;;4998807;28;20480;-56
2023/10/02 08:38:36;;;;;;;6.43;3.70;;;;;;;;;;5005986;28;20474;-56
2023/10/02 08:41:06;;;;;;;8.33;3.80;;;;;;;;;;5006103;28;20524;-56
2023/10/02 08:43:41;;;;;;;8.20;4.07;;;;;;;;;;5006621;28;20454;-56
2023/10/02 08:46:17;;;;;;;7.30;3.80;;;;;;;;;;5006540;28;20505;-57
2023/10/02 08:48:45;;;;;;;5.63;2.73;;;;;;;;;;5006521;28;20446;-55
2023/10/02 08:51:13;;;;;;;8.60;4.00;;;;;;;;;;5006504;28;20451;-55
2023/10/02 08:53:43;;;;;;;6.43;3.40;;;;;;;;;;5005568;28;20458;-53
2023/10/02 08:56:23;;;;;;;8.17;3.63;;;;;;;;;;5006547;28;20482;-53
2023/10/02 08:59:15;;;;;;;9.43;4.40;;;;;;;;;;5005634;28;20451;-52
2023/10/02 09:01:40;;;;;;;6.83;3.37;;;;;;;;;;4996983;28;20441;-54
2023/10/02 09:04:23;;;;;;;6.17;3.00;;;;;;;;;;5001985;28;20439;-53
2023/10/02 09:06:53;;;;;;;6.10;3.53;;;;;;;;;;5001339;28;20879;-53
2023/10/02 09:09:26;;;;;;;10.27;4.77;;;;;;;;;;5004497;28;20525;-53
2023/10/02 09:11:57;;;;;;;7.90;4.50;;;;;;;;;;5001005;28;21101;-55
2023/10/02 09:17:20;;;;;;;7.13;4.30;;;;;;;;;;5171668;27;21052;-52
2023/10/02 09:19:53;;;;;;;5.30;3.10;;;;;;;;;;5151309;27;20439;-55
2023/10/02 09:22:23;;;;;;;10.80;4.80;;;;;;;;;;5152307;27;20442;-56
2023/10/02 09:24:59;;;;;;;7.60;4.47;;;;;;;;;;5151663;27;20935;-55
2023/10/02 09:27:28;;;;;;;8.10;4.17;;;;;;;;;;5151339;27;21634;-56
2023/10/02 09:32:49;;;;;;;7.83;4.30;;;;;;;;;;5149611;27;20447;-56
2023/10/02 09:35:29;;;;;;;12.00;4.20;;;;;;;;;;5149123;27;20475;-56
2023/10/02 09:38:02;;;;;;;7.80;3.93;;;;;;;;;;5148848;27;20443;-56
2023/10/02 09:40:29;;;;;;;6.90;4.40;;;;;;;;;;5144937;27;20443;-56
2023/10/02 09:43:03;;;;;;;6.53;3.73;;;;;;;;;;5145729;27;20928;-56
2023/10/02 09:45:35;;;;;;;5.67;3.40;;;;;;;;;;5140775;27;20536;-57
2023/10/02 09:48:38;;;;;;;7.40;4.00;;;;;;;;;;5145684;27;20436;-56
2023/10/02 09:50:54;;;;;;;7.23;4.10;;;;;;;;;;5144613;27;20430;-56
2023/10/02 09:53:25;;;;;;;9.37;4.57;;;;;;;;;;5142130;27;20440;-57
2023/10/02 09:55:57;;;;;;;7.20;3.60;;;;;;;;;;5143454;27;20580;-54
2023/10/02 09:58:29;;;;;;;9.60;4.73;;;;;;;;;;5142658;27;20475;-54
2023/10/02 10:01:37;;;;;;;8.60;5.53;;;;;;;;;;5136183;27;20450;-54
2023/10/02 10:04:31;;;;;;;8.70;3.87;;;;;;;;;;5139266;27;20493;-54
2023/10/02 10:07:09;;;;;;;7.43;3.90;;;;;;;;;;5142343;27;20469;-54
2023/10/02 10:09:50;;;;;;;8.90;4.63;;;;;;;;;;5142547;27;20440;-55
2023/10/02 10:12:21;;;;;;;10.40;5.10;;;;;;;;;;5143793;27;20449;-55
2023/10/02 10:14:54;;;;;;;6.63;4.30;;;;;;;;;;5144327;27;20520;-55
2023/10/02 10:17:51;;;;;;;5.80;3.63;;;;;;;;;;5142178;27;20488;-54
2023/10/02 10:20:27;;;;;;;7.43;3.90;;;;;;;;;;5038511;28;20456;-56
2023/10/02 10:22:57;;;;;;;5.27;3.20;;;;;;;;;;5119421;27;20450;-55
2023/10/02 10:25:44;;;;;;;6.33;3.80;;;;;;;;;;5142390;27;20445;-55
2023/10/02 10:28:27;;;;;;;4.50;2.23;;;;;;;;;;5130708;27;21009;-55
2023/10/02 10:30:56;;;;;;;6.40;3.00;;;;;;;;;;5128714;27;20434;-55
2023/10/02 10:33:35;;;;;;;4.90;3.00;;;;;;;;;;5128785;27;20442;-55
2023/10/02 10:36:09;;;;;;;6.73;3.50;;;;;;;;;;5128238;27;20477;-55
2023/10/02 10:38:44;;;;;;;5.30;3.30;;;;;;;;;;5129628;27;20947;-55
2023/10/02 10:41:27;;;;;;;9.33;3.53;;;;;;;;;;5129883;27;20445;-56
2023/10/02 10:43:59;;;;;;;5.13;2.60;;;;;;;;;;5125742;27;20449;-57
2023/10/02 10:46:27;;;;;;;6.13;3.40;;;;;;;;;;5172258;22;20479;-57
2023/10/02 10:49:07;;;;;;;6.50;2.87;;;;;;;;;;5091688;28;20997;-56
2023/10/02 10:51:36;;;;;;;6.53;3.33;;;;;;;;;;5090471;28;20855;-57
2023/10/02 10:54:12;;;;;;;10.13;3.80;;;;;;;;;;5091747;28;20447;-56
2023/10/02 10:56:43;;;;;;;11.00;3.90;;;;;;;;;;5074737;28;20537;-58
2023/10/02 10:59:15;;;;;;;6.87;4.13;;;;;;;;;;5070041;28;20445;-59
2023/10/02 11:02:09;;;;;;;8.33;4.20;;;;;;;;;;5071797;28;20436;-56
2023/10/02 11:04:39;;;;;;;6.87;4.17;;;;;;;;;;5071987;28;20499;-61
2023/10/02 11:07:19;;;;;;;10.43;4.20;;;;;;;;;;5071644;28;20452;-58
2023/10/02 11:10:12;;;;;;;5.17;3.50;;;;;;;;;;5069961;28;20543;-61
2023/10/02 11:12:38;;;;;;;12.23;4.07;;;;;;;;;;5070190;28;20981;-59
2023/10/02 11:15:28;;;;;;;8.83;3.77;;;;;;;;;;5070549;28;20444;-59
2023/10/02 11:18:18;;;;;;;7.97;3.83;;;;;;;;;;5070758;28;20498;-59
2023/10/02 11:20:49;;;;;;;7.23;3.80;;;;;;;;;;5070320;28;20651;-58
2023/10/02 11:23:23;;;;;;;8.47;3.77;;;;;;;;;;5070197;28;20539;-59
2023/10/02 11:25:56;;;;;;;6.20;3.70;;;;;;;;;;5070624;28;20832;-59
2023/10/02 11:28:30;;;;;;;7.57;4.43;;;;;;;;;;5069522;28;20489;-59
2023/10/02 11:31:12;;;;;;;5.53;3.33;;;;;;;;;;5069912;28;20866;-59
2023/10/02 11:33:40;;;;;;;7.53;3.77;;;;;;;;;;5070174;28;20440;-60
2023/10/02 11:36:11;;;;;;;6.33;3.33;;;;;;;;;;5070009;28;20480;-61
2023/10/02 11:38:40;;;;;;;6.27;3.33;;;;;;;;;;5069452;28;20884;-60
2023/10/02 11:41:07;;;;;;;6.90;3.60;;;;;;;;;;5069482;28;20428;-59
2023/10/02 11:43:34;;;;;;;6.33;3.40;;;;;;;;;;5070907;28;20957;-58
2023/10/02 11:46:02;;;;;;;6.33;3.07;;;;;;;;;;5071138;28;20464;-59
2023/10/02 11:48:29;;;;;;;9.90;4.53;;;;;;;;;;5071675;28;20444;-58
2023/10/02 11:50:57;;;;;;;7.50;3.97;;;;;;;;;;5071427;28;20440;-57
2023/10/02 11:53:24;;;;;;;7.17;4.50;;;;;;;;;;5071537;28;20444;-57
2023/10/02 11:55:52;;;;;;;6.77;3.23;;;;;;;;;;5071468;28;20840;-60
2023/10/02 11:58:20;;;;;;;9.17;4.40;;;;;;;;;;5071366;28;20607;-56
2023/10/02 12:00:47;;;;;;;7.33;3.67;;;;;;;;;;5071571;28;20866;-58
2023/10/02 12:03:18;;;;;;;12.47;4.60;;;;;;;;;;5071304;28;21027;-58
2023/10/02 12:05:45;;;;;;;7.40;4.10;;;;;;;;;;5068311;28;20468;-59
2023/10/02 12:08:16;;;;;;;8.53;4.57;;;;;;;;;;5070266;28;20835;-60
2023/10/02 12:10:44;;;;;;;8.30;3.77;;;;;;;;;;5069737;28;20532;-61
2023/10/02 12:13:13;;;;;;;8.77;4.67;;;;;;;;;;5069869;28;20540;-60
2023/10/02 12:15:43;;;;;;;9.63;3.67;;;;;;;;;;5070784;28;20856;-61
2023/10/02 12:18:10;;;;;;;11.63;4.00;;;;;;;;;;5070898;28;20484;-61
2023/10/02 12:20:42;;;;;;;7.80;3.90;;;;;;;;;;5070495;28;20448;-59
2023/10/02 12:23:10;;;;;;;7.93;4.10;;;;;;;;;;5069507;28;20833;-59
2023/10/02 12:25:38;;;;;;;6.33;3.87;;;;;;;;;;5069678;28;20531;-58
2023/10/02 12:28:09;;;;;;;7.63;3.70;;;;;;;;;;5070631;28;20440;-59
2023/10/02 12:30:37;;;;;;;7.40;3.83;;;;;;;;;;5068662;28;20453;-59
2023/10/02 12:33:05;;;;;;;10.27;4.00;;;;;;;;;;5070537;28;20464;-58
2023/10/02 12:35:34;;;;;;;8.80;3.60;;;;;;;;;;5070483;28;20668;-60
2023/10/02 12:38:01;;;;;;;7.33;3.50;;;;;;;;;;5069172;28;20571;-57
2023/10/02 12:40:31;;;;;;;8.07;3.50;;;;;;;;;;5069256;28;20923;-60
2023/10/02 12:43:00;;;;;;;8.93;3.73;;;;;;;;;;5068676;28;20532;-59
2023/10/02 12:45:33;;;;;;;8.70;4.10;;;;;;;;;;5067664;28;20483;-59
2023/10/02 12:48:06;;;;;;;8.00;3.77;;;;;;;;;;5070575;28;20432;-58
2023/10/02 12:50:33;;;;;;;6.97;4.33;;;;;;;;;;5069848;28;20452;-58
2023/10/02 12:53:00;;;;;;;6.67;3.93;;;;;;;;;;5070749;28;20449;-59
2023/10/02 12:55:29;;;;;;;6.90;3.90;;;;;;;;;;5070380;28;21004;-59
2023/10/02 12:57:56;;;;;;;8.17;3.70;;;;;;;;;;5070275;28;20502;-61
2023/10/02 13:00:24;;;;;;;6.40;3.63;;;;;;;;;;5067414;28;20449;-59
2023/10/02 13:02:51;;;;;;;6.73;3.57;;;;;;;;;;5067512;28;20448;-60
2023/10/02 13:05:20;;;;;;;10.60;4.50;;;;;;;;;;5067493;28;20498;-60
2023/10/02 13:07:48;;;;;;;6.93;4.43;;;;;;;;;;5071385;28;20491;-60
2023/10/02 13:10:15;;;;;;;6.77;3.80;;;;;;;;;;5071513;28;20483;-59
2023/10/02 13:12:43;;;;;;;8.50;4.90;;;;;;;;;;5069488;28;20854;-60
2023/10/02 13:15:13;;;;;;;7.23;3.80;;;;;;;;;;5069186;28;20440;-59
2023/10/02 13:17:40;;;;;;;8.47;4.47;;;;;;;;;;5069687;28;20571;-58
2023/10/02 13:20:10;;;;;;;8.03;4.33;;;;;;;;;;5068768;28;20502;-59
2023/10/02 13:22:39;;;;;;;12.40;4.40;;;;;;;;;;5065221;28;20452;-58
2023/10/02 13:25:11;;;;;;;7.93;3.50;;;;;;;;;;5069570;28;20993;-57
2023/10/02 13:27:39;;;;;;;6.63;3.10;;;;;;;;;;5069735;28;20874;-59
2023/10/02 13:30:11;;;;;;;9.20;4.30;;;;;;;;;;5069575;28;20438;-59
2023/10/02 13:32:40;;;;;;;6.20;3.47;;;;;;;;;;5067301;28;20478;-57
2023/10/02 13:35:09;;;;;;;6.87;4.17;;;;;;;;;;5071633;28;20441;-59
2023/10/02 13:37:36;;;;;;;8.37;4.33;;;;;;;;;;5070836;28;20492;-60
2023/10/02 13:40:18;;;;;;;8.70;4.27;;;;;;;;;;5067531;28;20444;-58
2023/10/02 13:42:45;;;;;;;8.50;3.40;;;;;;;;;;5067914;28;21000;-59
2023/10/02 13:45:13;;;;;;;7.40;3.80;;;;;;;;;;5068144;28;20891;-57
2023/10/02 13:47:40;;;;;;;10.33;3.80;;;;;;;;;;5069192;28;20536;-59
2023/10/02 13:50:09;;;;;;;6.80;3.67;;;;;;;;;;5066024;28;20480;-60
2023/10/02 13:52:36;;;;;;;9.87;4.33;;;;;;;;;;5066413;28;20815;-59
2023/10/02 13:55:19;;;;;;;7.80;5.17;;;;;;;;;;5066105;28;20876;-58
2023/10/02 13:57:48;;;;;;;6.00;3.70;;;;;;;;;;5066298;28;20484;-59
2023/10/02 14:00:17;;;;;;;10.13;4.67;;;;;;;;;;5069006;28;20482;-58
2023/10/02 14:02:45;;;;;;;6.63;3.40;;;;;;;;;;5071024;28;20584;-58
2023/10/02 14:05:14;;;;;;;7.80;3.73;;;;;;;;;;5071778;28;20482;-57
2023/10/02 14:07:42;;;;;;;353.90;64.27;;;;;;;;;;5070044;28;20970;-58
2023/10/02 14:10:10;;;;;;;373.20;63.70;;;;;;;;;;5071309;28;20452;-57
2023/10/02 14:12:42;;;;;;;40.20;11.13;;;;;;;;;;5073838;28;20870;-57
2023/10/02 14:15:13;;;;;;;741.03;157.67;;;;;;;;;;5066219;28;20481;-58
2023/10/02 14:17:40;;;;;;;68.00;19.17;;;;;;;;;;5069061;28;20475;-60
2023/10/02 14:20:13;;;;;;;15.93;7.27;;;;;;;;;;5068666;28;21073;-58
2023/10/02 14:22:41;;;;;;;16.23;5.00;;;;;;;;;;5070885;28;20527;-58
2023/10/02 14:25:08;;;;;;;10.00;4.57;;;;;;;;;;5070865;28;20448;-60
2023/10/02 14:27:36;;;;;;;6.80;3.67;;;;;;;;;;5070042;28;20478;-57
2023/10/02 14:30:03;;;;;;;8.23;4.73;;;;;;;;;;5069377;28;20494;-56
2023/10/02 14:32:32;;;;;;;8.50;3.90;;;;;;;;;;5070652;28;20544;-59
2023/10/02 14:34:59;;;;;;;13.23;4.43;;;;;;;;;;5073081;28;20445;-57
2023/10/02 14:37:26;;;;;;;8.33;3.90;;;;;;;;;;5065823;28;20565;-58
2023/10/02 14:39:54;;;;;;;11.50;4.77;;;;;;;;;;5066346;28;20540;-58
2023/10/02 14:42:23;;;;;;;6.80;3.67;;;;;;;;;;5067686;28;22099;-56
2023/10/02 14:44:52;;;;;;;7.67;3.53;;;;;;;;;;5068571;28;20468;-59
2023/10/02 14:47:19;;;;;;;11.87;4.77;;;;;;;;;;5066325;28;20475;-59
2023/10/02 14:49:48;;;;;;;10.70;4.57;;;;;;;;;;5068698;28;20951;-58
2023/10/02 14:52:15;;;;;;;39.17;6.07;;;;;;;;;;5068917;28;20444;-56
2023/10/02 14:54:42;;;;;;;11.83;3.93;;;;;;;;;;5068969;28;20521;-58
2023/10/02 14:57:10;;;;;;;15.60;4.67;;;;;;;;;;5069033;28;20476;-58
2023/10/02 14:59:37;;;;;;;15.93;4.97;;;;;;;;;;5069833;28;20612;-57
2023/10/02 15:02:04;;;;;;;9.90;4.60;;;;;;;;;;5071471;28;20502;-57
2023/10/02 15:04:33;;;;;;;11.50;3.97;;;;;;;;;;5070998;28;20817;-56
2023/10/02 15:07:02;;;;;;;13.13;5.47;;;;;;;;;;5071005;28;20466;-58
2023/10/02 15:09:29;;;;;;;11.90;4.80;;;;;;;;;;5071014;28;20543;-57
2023/10/02 15:11:56;;;;;;;12.17;4.80;;;;;;;;;;5065747;28;20453;-58
2023/10/02 15:14:26;;;;;;;13.07;4.90;;;;;;;;;;5070074;28;20511;-57
2023/10/02 15:16:53;;;;;;;8.60;4.83;;;;;;;;;;5070137;28;20457;-58
2023/10/02 15:19:20;;;;;;;13.40;4.87;;;;;;;;;;5068474;28;20531;-60
2023/10/02 15:21:48;;;;;;;9.70;4.00;;;;;;;;;;5068499;28;20468;-58
2023/10/02 15:24:18;;;;;;;9.67;4.20;;;;;;;;;;5068521;28;20939;-59
2023/10/02 15:26:45;;;;;;;11.90;4.37;;;;;;;;;;5069307;28;20986;-59
2023/10/02 15:29:12;;;;;;;8.43;3.67;;;;;;;;;;5068350;28;20455;-58
2023/10/02 15:31:39;;;;;;;5.70;3.37;;;;;;;;;;5068899;28;20785;-58
2023/10/02 15:34:07;;;;;;;9.30;4.10;;;;;;;;;;5071184;28;20464;-56
2023/10/02 15:36:34;;;;;;;6.50;3.00;;;;;;;;;;5062521;28;20507;-59
2023/10/02 15:39:02;;;;;;;6.27;3.50;;;;;;;;;;5070948;28;20977;-58